Time;durP1;ratioP1;P1;durP2;ratioP2;P2;SDS_P1;SDS_P2;PMS_P1;PMS_P2;Temp;Humidity;BMP_temperature;BMP_pressure;BME280_temperature;BME280_humidity;BME280_pressure;Samples;Min_cycle;Max_cycle;Signal;HPM_P1;HPM_P2
2023/04/04 00:06:47;;;;;;;;;;;;;;;;;;;;;
2023/04/04 00:13:06;;;;;;;24.53;16.83;;;;;;;10.10;100.00;98038.25;5144168;27;20202;-48
2023/04/04 00:19:10;;;;;;;27.37;18.87;;;;;;;10.08;100.00;98026.28;5146531;27;20208;-49
2023/04/04 00:22:03;;;;;;;26.83;17.37;;;;;;;10.11;100.00;98037.34;5146988;27;20607;-51
2023/04/04 00:25:00;;;;;;;28.60;17.77;;;;;;;10.17;100.00;98024.06;5145521;27;20657;-49
2023/04/04 00:27:59;;;;;;;27.37;17.83;;;;;;;10.21;100.00;98021.34;5141124;27;20757;-49
2023/04/04 00:30:45;;;;;;;25.17;17.47;;;;;;;10.21;100.00;98016.16;5132320;27;20202;-48
2023/04/04 00:43:11;;;;;;;25.57;17.23;;;;;;;10.17;100.00;98018.88;5128824;27;20259;-48
2023/04/04 00:45:56;;;;;;;23.70;16.93;;;;;;;10.25;100.00;98022.88;5132953;27;20200;-49
2023/04/04 00:48:59;;;;;;;24.63;16.73;;;;;;;10.29;100.00;98019.19;5132749;27;20677;-49
2023/04/04 00:51:37;;;;;;;24.13;15.57;;;;;;;10.28;100.00;98017.50;5132727;27;20193;-49
2023/04/04 00:54:36;;;;;;;24.47;17.00;;;;;;;10.29;100.00;98014.00;5131976;27;20206;-49
2023/04/04 00:57:13;;;;;;;24.57;17.80;;;;;;;10.30;100.00;98002.72;5129041;27;20237;-49
2023/04/04 01:00:26;;;;;;;24.53;16.60;;;;;;;10.35;100.00;98005.94;5132822;27;20197;-48
2023/04/04 01:03:24;;;;;;;24.17;17.00;;;;;;;10.34;100.00;98007.69;5132122;27;20202;-47
2023/04/04 01:06:26;;;;;;;25.33;17.03;;;;;;;10.37;100.00;98011.88;5129059;27;20760;-51
2023/04/04 01:12:24;;;;;;;23.07;15.97;;;;;;;10.27;100.00;98001.13;5131416;27;20294;-51
2023/04/04 01:15:29;;;;;;;35.27;17.67;;;;;;;10.27;100.00;98002.91;5130595;27;20205;-48
2023/04/04 01:18:34;;;;;;;29.23;18.83;;;;;;;10.27;100.00;98002.91;5131425;27;20333;-49
2023/04/04 01:21:28;;;;;;;27.97;19.07;;;;;;;10.30;100.00;97994.94;5131997;27;20190;-48
2023/04/04 01:24:21;;;;;;;27.53;19.33;;;;;;;10.32;100.00;97990.53;5132334;27;20198;-51
2023/04/04 01:39:34;;;;;;;26.30;18.10;;;;;;;10.33;100.00;97985.25;5130889;27;20201;-48
2023/04/04 01:46:10;;;;;;;25.17;18.27;;;;;;;10.38;100.00;97977.25;5130669;27;20248;-52
2023/04/04 01:52:05;;;;;;;29.67;20.10;;;;;;;10.36;100.00;97979.09;5128886;27;20300;-49
2023/04/04 01:55:10;;;;;;;32.97;21.13;;;;;;;10.37;100.00;97975.56;5131286;27;20233;-51
2023/04/04 01:58:22;;;;;;;32.23;21.27;;;;;;;10.35;100.00;97959.25;5131520;27;20189;-51
2023/04/04 02:07:24;;;;;;;37.47;22.37;;;;;;;10.33;100.00;97946.34;5129254;27;20754;-49
2023/04/04 02:10:26;;;;;;;35.30;23.63;;;;;;;10.38;100.00;97957.34;5131542;27;20638;-50
2023/04/04 02:13:36;;;;;;;;;;;;;;;;;;;;;
2023/04/04 02:16:50;;;;;;;35.13;22.87;;;;;;;10.36;100.00;97960.94;5125204;27;20232;-51
2023/04/04 02:19:50;;;;;;;37.10;23.60;;;;;;;10.37;100.00;97960.00;5131151;27;20301;-51
2023/04/04 02:22:43;;;;;;;35.70;22.03;;;;;;;10.41;100.00;97961.50;5130998;27;20198;-49
2023/04/04 02:28:23;;;;;;;33.13;22.57;;;;;;;10.44;100.00;97961.34;5128931;27;20278;-47
2023/04/04 02:31:07;;;;;;;38.27;23.43;;;;;;;10.45;100.00;97965.63;5130301;27;20198;-49
2023/04/04 02:37:11;;;;;;;25.63;19.13;;;;;;;10.44;100.00;97967.38;5128841;27;20665;-49
2023/04/04 02:43:11;;;;;;;21.17;16.93;;;;;;;10.37;100.00;97960.84;5129850;27;20198;-49
2023/04/04 02:46:06;;;;;;;30.87;18.60;;;;;;;10.42;100.00;97960.59;5130817;27;20766;-54
2023/04/04 02:48:58;;;;;;;22.60;17.47;;;;;;;10.39;100.00;97964.19;5130341;27;20709;-51
2023/04/04 02:57:39;;;;;;;21.93;17.00;;;;;;;10.44;100.00;97958.75;5127297;27;20341;-49
2023/04/04 03:00:11;;;;;;;22.43;16.80;;;;;;;10.47;100.00;97961.19;5130299;27;20198;-49
2023/04/04 03:05:51;;;;;;;21.77;16.23;;;;;;;10.41;100.00;97964.94;5129397;27;20281;-48
2023/04/04 03:09:01;;;;;;;;;;;;;;;;;;;;;
2023/04/04 03:11:47;;;;;;;25.87;16.70;;;;;;;10.46;100.00;97949.16;5105272;28;20689;-48
2023/04/04 03:14:17;;;;;;;24.63;16.00;;;;;;;10.49;100.00;97961.97;5130316;28;20237;-48
2023/04/04 03:19:45;;;;;;;22.80;17.20;;;;;;;10.41;100.00;97951.97;5127953;28;20208;-49
2023/04/04 03:22:31;;;;;;;27.53;16.47;;;;;;;10.53;100.00;97960.84;5126873;28;20201;-48
2023/04/04 03:25:06;;;;;;;26.90;16.67;;;;;;;10.45;100.00;97963.88;5130175;28;20190;-48
2023/04/04 03:27:44;;;;;;;26.93;16.80;;;;;;;10.46;100.00;97951.75;5130007;28;20221;-50
2023/04/04 03:30:30;;;;;;;27.73;18.97;;;;;;;10.41;100.00;97956.31;5129843;28;20254;-47
2023/04/04 03:33:12;;;;;;;30.80;17.20;;;;;;;10.44;100.00;97966.53;5130069;28;20564;-48
2023/04/04 03:35:53;;;;;;;28.87;19.23;;;;;;;10.40;100.00;97975.38;5128688;28;20219;-49
2023/04/04 03:38:37;;;;;;;32.00;19.67;;;;;;;10.47;100.00;97992.31;5130098;28;20198;-50
2023/04/04 03:41:10;;;;;;;29.07;20.17;;;;;;;10.44;100.00;97992.47;5129575;28;20190;-51
2023/04/04 03:43:47;;;;;;;28.20;18.63;;;;;;;10.43;100.00;97988.19;5128791;28;20269;-51
2023/04/04 03:46:17;;;;;;;28.80;19.97;;;;;;;10.45;100.00;97986.38;5129579;28;20294;-50
2023/04/04 03:48:59;;;;;;;28.73;18.53;;;;;;;10.46;100.00;97986.28;5126748;28;20218;-48
2023/04/04 03:51:31;;;;;;;32.30;20.17;;;;;;;10.43;100.00;97990.78;5127922;28;20193;-48
2023/04/04 03:54:21;;;;;;;33.27;20.00;;;;;;;10.45;100.00;98007.97;5126847;28;20190;-48
2023/04/04 03:56:53;;;;;;;29.57;19.47;;;;;;;10.50;100.00;97989.53;5126865;28;20595;-48
2023/04/04 03:59:26;;;;;;;32.00;21.57;;;;;;;10.47;100.00;97993.16;5127609;28;20272;-51
2023/04/04 04:02:07;;;;;;;37.97;22.33;;;;;;;10.51;100.00;97997.25;5126126;27;20193;-50
2023/04/04 04:04:55;;;;;;;31.13;22.27;;;;;;;10.51;100.00;98006.78;5129706;27;20208;-51
2023/04/04 04:07:29;;;;;;;30.57;22.10;;;;;;;10.50;100.00;98000.75;5133743;27;20221;-52
2023/04/04 04:09:58;;;;;;;33.17;22.67;;;;;;;10.56;100.00;98012.59;5133637;27;20194;-51
2023/04/04 04:12:51;;;;;;;44.77;23.50;;;;;;;10.72;100.00;97999.66;5132277;27;20194;-50
2023/04/04 04:15:49;;;;;;;34.90;22.50;;;;;;;10.88;100.00;98000.47;5131054;27;20197;-49
2023/04/04 04:18:26;;;;;;;46.77;24.30;;;;;;;10.90;100.00;98007.28;5132249;27;20863;-49
2023/04/04 04:21:22;;;;;;;39.03;22.30;;;;;;;11.08;100.00;98018.41;5133771;27;20205;-49
2023/04/04 04:23:59;;;;;;;28.37;21.17;;;;;;;10.91;100.00;98008.13;5126937;27;20286;-49
2023/04/04 04:26:41;;;;;;;30.17;21.33;;;;;;;10.89;100.00;98005.59;5128861;27;20285;-48
2023/04/04 04:29:09;;;;;;;30.83;21.50;;;;;;;11.07;100.00;98005.50;5131656;27;20245;-49
2023/04/04 04:31:43;;;;;;;33.30;21.67;;;;;;;11.01;100.00;98006.69;5128856;27;20741;-48
2023/04/04 04:34:20;;;;;;;29.03;21.20;;;;;;;11.12;100.00;98009.53;5130243;27;20670;-50
2023/04/04 04:36:53;;;;;;;28.13;19.57;;;;;;;11.09;100.00;98008.84;5130490;27;20281;-49
2023/04/04 04:39:23;;;;;;;29.53;20.87;;;;;;;11.10;100.00;98015.72;5128754;27;20238;-48
2023/04/04 04:41:59;;;;;;;30.40;21.50;;;;;;;11.05;100.00;98008.22;5129518;27;20692;-48
2023/04/04 04:44:33;;;;;;;28.90;19.53;;;;;;;11.16;100.00;98015.41;5128632;27;20186;-48
2023/04/04 04:47:11;;;;;;;31.93;20.13;;;;;;;11.21;100.00;98022.00;5130442;27;20211;-48
2023/04/04 04:49:46;;;;;;;23.77;18.30;;;;;;;11.05;100.00;98028.13;5130831;27;20205;-49
2023/04/04 04:52:21;;;;;;;24.57;19.27;;;;;;;10.96;100.00;98018.22;5128199;27;20274;-48
2023/04/04 04:54:49;;;;;;;27.67;18.67;;;;;;;10.92;100.00;98027.97;5130402;27;20680;-48
2023/04/04 04:57:29;;;;;;;26.67;20.20;;;;;;;10.90;100.00;98024.59;5131295;27;20190;-49
2023/04/04 05:00:08;;;;;;;24.60;19.43;;;;;;;10.92;100.00;98014.97;5129059;27;20200;-50
2023/04/04 05:02:37;;;;;;;27.40;19.07;;;;;;;10.91;100.00;98019.34;5130741;27;20201;-49
2023/04/04 05:05:19;;;;;;;26.77;19.80;;;;;;;10.91;100.00;98019.34;5131173;27;20295;-49
2023/04/04 05:07:47;;;;;;;26.77;20.50;;;;;;;10.88;100.00;98008.28;5129877;27;20224;-48
2023/04/04 05:10:30;;;;;;;25.43;20.17;;;;;;;10.86;100.00;98016.13;5128910;27;20196;-50
2023/04/04 05:13:04;;;;;;;26.87;20.10;;;;;;;10.80;100.00;98020.81;5128371;27;20624;-49
2023/04/04 05:15:46;;;;;;;28.37;20.27;;;;;;;10.85;100.00;98019.66;5127488;27;20204;-48
2023/04/04 05:18:17;;;;;;;30.13;21.83;;;;;;;10.91;100.00;98019.34;5127206;27;20217;-48
2023/04/04 05:21:08;;;;;;;29.43;22.07;;;;;;;10.97;100.00;98019.91;5129979;27;20600;-48
2023/04/04 05:33:06;;;;;;;24.67;18.27;;;;;;;10.93;100.00;98014.06;5131177;27;20585;-48
2023/04/04 05:35:58;;;;;;;23.13;17.87;;;;;;;10.93;100.00;98010.63;5125787;27;20197;-49
2023/04/04 05:42:06;;;;;;;21.00;16.50;;;;;;;10.96;100.00;98010.44;5127492;27;20274;-49
2023/04/04 05:44:57;;;;;;;21.77;14.83;;;;;;;11.00;100.00;98011.97;5131550;27;20200;-48
2023/04/04 05:57:52;;;;;;;17.07;14.03;;;;;;;11.01;100.00;98029.22;5128171;27;20293;-52
2023/04/04 06:00:43;;;;;;;18.53;14.07;;;;;;;10.90;100.00;98029.78;5130978;27;20197;-48
2023/04/04 06:07:02;;;;;;;16.23;13.83;;;;;;;10.98;100.00;98037.16;5129619;27;20654;-51
2023/04/04 06:09:40;;;;;;;16.80;14.37;;;;;;;10.96;100.00;98041.59;5127291;27;20749;-51
2023/04/04 06:12:31;;;;;;;18.33;13.80;;;;;;;10.96;100.00;98047.63;5129944;27;20221;-51
2023/04/04 06:15:36;;;;;;;14.70;12.90;;;;;;;11.05;100.00;98041.13;5129585;27;20705;-48
2023/04/04 06:18:26;;;;;;;16.27;13.60;;;;;;;11.03;100.00;98054.19;5128855;27;20594;-48
2023/04/04 06:21:30;;;;;;;15.97;12.80;;;;;;;11.07;100.00;98049.63;5127301;27;20229;-48
2023/04/04 06:24:29;;;;;;;17.00;13.43;;;;;;;10.99;100.00;98044.03;5130245;27;20297;-53
2023/04/04 06:27:29;;;;;;;16.17;13.13;;;;;;;11.06;100.00;98043.59;5129140;27;20289;-52
2023/04/04 06:30:21;;;;;;;18.33;13.43;;;;;;;11.13;100.00;98046.72;5130870;27;20198;-47
2023/04/04 06:33:15;;;;;;;16.90;13.73;;;;;;;11.18;100.00;98047.28;5110121;28;20194;-52
2023/04/04 06:39:33;;;;;;;16.83;13.80;;;;;;;11.20;100.00;98053.25;5106547;28;20195;-52
2023/04/04 06:42:27;;;;;;;16.43;14.67;;;;;;;11.25;100.00;98038.25;5109403;28;20202;-52
2023/04/04 06:45:31;;;;;;;17.97;13.90;;;;;;;11.22;100.00;98044.47;5106826;28;20593;-52
2023/04/04 06:48:07;;;;;;;16.70;12.40;;;;;;;11.22;100.00;98048.81;5110365;28;20287;-51
2023/04/04 06:51:10;;;;;;;23.30;15.17;;;;;;;11.27;100.00;98046.81;5108960;28;20198;-54
2023/04/04 06:57:20;;;;;;;23.33;15.53;;;;;;;11.25;100.00;98040.88;5109063;28;20202;-52
2023/04/04 07:03:22;;;;;;;23.73;16.87;;;;;;;11.33;100.00;98049.06;5110001;28;20201;-55
2023/04/04 07:06:41;;;;;;;25.67;18.20;;;;;;;11.39;100.00;98045.31;5108715;28;20194;-51
2023/04/04 07:13:12;;;;;;;22.90;17.80;;;;;;;11.31;100.00;98026.69;5107853;28;20784;-53
2023/04/04 07:16:26;;;;;;;24.90;18.03;;;;;;;11.40;100.00;98041.78;5109661;28;20623;-51
2023/04/04 07:19:12;;;;;;;25.17;18.77;;;;;;;11.42;100.00;98040.75;5109186;28;20249;-51
2023/04/04 07:21:40;;;;;;;35.20;19.67;;;;;;;11.56;100.00;98048.63;5110388;28;20225;-51
2023/04/04 07:24:44;;;;;;;27.13;18.43;;;;;;;11.69;100.00;98053.97;5129017;28;20720;-50
2023/04/04 07:27:24;;;;;;;29.87;20.70;;;;;;;11.67;100.00;98050.63;5126317;28;20538;-51
2023/04/04 07:30:16;;;;;;;29.63;19.30;;;;;;;11.71;100.00;98054.72;5108722;28;20232;-52
2023/04/04 07:33:02;;;;;;;30.03;20.37;;;;;;;11.76;100.00;98062.28;5124985;28;20214;-51
2023/04/04 07:39:06;;;;;;;24.60;18.97;;;;;;;11.88;100.00;98064.19;5133071;27;20661;-51
2023/04/04 07:41:53;;;;;;;25.17;18.27;;;;;;;11.96;100.00;98062.81;5134112;27;20664;-52
2023/04/04 07:45:20;;;;;;;28.97;18.37;;;;;;;11.89;100.00;98076.25;5134329;27;20197;-51
2023/04/04 07:48:25;;;;;;;;;;;;;;;;;;;;;
2023/04/04 07:50:59;;;;;;;31.70;20.23;;;;;;;11.81;100.00;98073.28;5128596;27;20208;-47
2023/04/04 07:53:45;;;;;;;31.90;19.33;;;;;;;11.76;100.00;98073.50;5114087;27;20207;-49
2023/04/04 07:56:44;;;;;;;26.33;19.20;;;;;;;11.75;100.00;98076.16;5128960;27;20727;-48
2023/04/04 07:59:38;;;;;;;26.67;19.63;;;;;;;11.81;100.00;98068.06;5128900;27;20212;-48
2023/04/04 08:05:24;;;;;;;29.90;18.37;;;;;;;11.81;100.00;98070.66;5131931;27;20601;-49
2023/04/04 08:08:15;;;;;;;29.07;18.70;;;;;;;11.84;100.00;98071.34;5129171;27;20198;-48
2023/04/04 08:11:19;;;;;;;32.40;20.27;;;;;;;11.88;100.00;98074.59;5130479;27;20202;-49
2023/04/04 08:17:29;;;;;;;31.90;20.30;;;;;;;11.94;100.00;98062.09;5128667;27;20700;-52
2023/04/04 08:20:18;;;;;;;31.00;20.93;;;;;;;12.10;100.00;98071.59;5130701;27;20186;-53
2023/04/04 08:25:59;;;;;;;29.60;21.57;;;;;;;12.17;100.00;98080.72;5131314;27;20259;-52
2023/04/04 08:28:42;;;;;;;29.97;20.50;;;;;;;12.20;100.00;98081.38;5130879;27;20218;-52
2023/04/04 08:31:30;;;;;;;32.23;21.47;;;;;;;12.33;100.00;98082.31;5131168;27;20215;-52
2023/04/04 08:34:29;;;;;;;29.00;20.40;;;;;;;12.42;100.00;98082.72;5130251;27;20228;-54
2023/04/04 08:46:23;;;;;;;32.77;19.57;;;;;;;12.56;100.00;98082.72;5131895;27;20246;-51
2023/04/04 08:49:28;;;;;;;25.70;19.17;;;;;;;12.54;100.00;98080.22;5128597;27;20224;-49
2023/04/04 08:52:25;;;;;;;25.03;17.83;;;;;;;12.52;100.00;98086.47;5132535;27;20189;-48
2023/04/04 08:55:14;;;;;;;25.73;16.73;;;;;;;12.51;100.00;98096.03;5131744;27;20197;-48
2023/04/04 08:58:13;;;;;;;25.47;17.23;;;;;;;12.58;100.00;98104.31;5132351;27;20726;-48
2023/04/04 09:04:25;;;;;;;29.03;18.63;;;;;;;12.70;100.00;98095.78;5131008;27;20205;-49
2023/04/04 09:07:23;;;;;;;26.63;18.70;;;;;;;12.86;100.00;98096.53;5129078;27;20197;-49
2023/04/04 09:16:30;;;;;;;28.83;19.00;;;;;;;13.11;100.00;98101.06;5129576;27;20210;-47
2023/04/04 09:19:14;;;;;;;27.90;17.43;;;;;;;13.06;100.00;98109.16;5087779;28;20199;-49
2023/04/04 09:24:56;;;;;;;24.27;17.70;;;;;;;12.87;100.00;98100.78;5070265;28;20332;-48
2023/04/04 09:28:01;;;;;;;23.87;16.87;;;;;;;12.85;100.00;98100.06;5068761;28;20224;-48
2023/04/04 09:30:47;;;;;;;24.43;18.47;;;;;;;12.91;100.00;98106.66;5069163;28;20843;-51
2023/04/04 09:33:26;;;;;;;35.07;18.93;;;;;;;12.89;100.00;98108.50;5068338;28;20238;-51
2023/04/04 09:36:25;;;;;;;27.37;19.07;;;;;;;12.92;100.00;98111.78;5069144;28;21951;-49
2023/04/04 09:39:04;;;;;;;25.07;18.80;;;;;;;12.97;100.00;98108.91;5082308;28;20219;-47
2023/04/04 09:42:06;;;;;;;23.97;19.27;;;;;;;12.94;100.00;98103.88;5088541;28;20227;-52
2023/04/04 09:44:45;;;;;;;28.93;18.63;;;;;;;13.02;100.00;98119.84;5068912;28;20203;-52
2023/04/04 09:47:34;;;;;;;22.83;17.23;;;;;;;12.98;100.00;98119.19;5085727;28;20195;-52
2023/04/04 09:50:21;;;;;;;26.83;17.57;;;;;;;12.94;100.00;98115.13;5085709;28;20249;-49
2023/04/04 09:53:10;;;;;;;26.67;18.50;;;;;;;13.07;100.00;98117.81;5088645;28;20268;-52
2023/04/04 09:55:43;;;;;;;30.30;19.30;;;;;;;13.22;100.00;98113.44;5088054;28;20302;-49
2023/04/04 09:58:54;;;;;;;27.83;19.70;;;;;;;13.35;100.00;98111.75;5088352;28;20215;-49
2023/04/04 10:04:54;;;;;;;27.53;18.37;;;;;;;13.34;100.00;98113.53;5068779;28;20203;-47
2023/04/04 10:07:31;;;;;;;27.33;18.30;;;;;;;13.30;100.00;98091.22;5069519;28;20706;-49
2023/04/04 10:10:15;;;;;;;25.80;17.07;;;;;;;13.40;100.00;98114.94;5068952;28;20732;-49
2023/04/04 10:13:14;;;;;;;23.70;16.67;;;;;;;13.29;100.00;98122.59;5068522;28;20231;-51
2023/04/04 10:16:14;;;;;;;27.67;17.17;;;;;;;13.32;100.00;98109.34;5068605;28;20236;-48
2023/04/04 10:24:59;;;;;;;24.73;16.83;;;;;;;13.49;100.00;98105.69;5128663;27;20289;-51
2023/04/04 10:28:06;;;;;;;22.73;15.17;;;;;;;13.53;100.00;98102.81;5129621;27;20237;-51
2023/04/04 10:30:50;;;;;;;20.87;15.27;;;;;;;13.76;100.00;98103.97;5121604;27;20216;-51
2023/04/04 10:33:36;;;;;;;20.77;15.00;;;;;;;13.92;100.00;98098.56;5126348;27;20222;-52
2023/04/04 10:36:18;;;;;;;26.97;17.93;;;;;;;14.13;100.00;98097.16;5127413;27;20737;-51
2023/04/04 10:39:08;;;;;;;23.33;16.07;;;;;;;14.38;100.00;98096.38;5127046;27;20677;-51
2023/04/04 10:41:45;;;;;;;25.30;15.87;;;;;;;14.74;100.00;98093.09;5124535;27;20231;-51
2023/04/04 10:44:26;;;;;;;21.50;14.17;;;;;;;15.06;100.00;98091.72;5128528;27;20185;-52
2023/04/04 10:47:16;;;;;;;16.60;13.70;;;;;;;15.60;100.00;98088.78;5127915;27;20190;-51
2023/04/04 10:53:43;;;;;;;12.93;11.30;;;;;;;16.19;100.00;98089.66;5125050;27;20194;-51
2023/04/04 10:56:26;;;;;;;17.53;12.63;;;;;;;16.37;100.00;98090.06;5126629;27;20201;-52
2023/04/04 10:59:23;;;;;;;21.53;12.57;;;;;;;16.73;100.00;98080.41;5127979;27;20194;-53
2023/04/04 11:02:10;;;;;;;13.73;11.97;;;;;;;16.73;100.00;98069.91;5123673;27;20716;-53
2023/04/04 11:04:49;;;;;;;18.63;12.10;;;;;;;16.90;100.00;98069.47;5127694;27;20210;-53
2023/04/04 11:07:39;;;;;;;15.37;12.00;;;;;;;16.89;100.00;98080.91;5125672;27;20197;-52
2023/04/04 11:10:15;;;;;;;16.17;11.77;;;;;;;16.92;100.00;98075.44;5127581;27;20210;-52
2023/04/04 11:12:49;;;;;;;21.40;14.37;;;;;;;17.04;100.00;98084.97;5126199;27;20201;-47
2023/04/04 11:15:28;;;;;;;15.67;12.80;;;;;;;17.05;100.00;98081.38;5127003;27;20190;-52
2023/04/04 11:18:03;;;;;;;13.90;12.23;;;;;;;17.13;100.00;98084.25;5125245;28;20274;-50
2023/04/04 11:20:37;;;;;;;15.80;12.13;;;;;;;17.18;100.00;98076.84;5127754;28;20190;-48
2023/04/04 11:23:27;;;;;;;18.13;12.20;;;;;;;17.00;100.00;98076.50;5126799;28;20185;-49
2023/04/04 11:26:02;;;;;;;13.03;10.90;;;;;;;16.95;100.00;98076.00;5127278;28;20198;-48
2023/04/04 11:28:47;;;;;;;14.80;12.30;;;;;;;16.95;100.00;98076.00;5127492;28;20225;-52
2023/04/04 11:31:27;;;;;;;17.03;11.40;;;;;;;17.17;100.00;98075.16;5126353;28;20228;-52
2023/04/04 11:34:10;;;;;;;12.47;11.30;;;;;;;17.33;100.00;98074.81;5127752;28;20198;-52
2023/04/04 11:36:52;;;;;;;15.35;12.07;;;;;;;17.41;100.00;98065.38;5125673;28;20193;-54
2023/04/04 11:39:56;;;;;;;14.43;12.50;;;;;;;17.24;100.00;98062.44;5126394;28;20194;-51
2023/04/04 11:42:25;;;;;;;14.50;11.13;;;;;;;17.01;100.00;98067.69;5126095;28;20242;-52
2023/04/04 11:45:09;;;;;;;18.43;11.50;;;;;;;17.03;100.00;98065.78;5127403;28;20285;-52
2023/04/04 11:47:46;;;;;;;19.48;11.85;;;;;;;17.05;100.00;98071.72;5124987;28;20577;-52
2023/04/04 11:50:27;;;;;;;12.23;11.00;;;;;;;17.02;100.00;98076.38;5126832;28;20217;-51
2023/04/04 11:53:18;;;;;;;18.13;11.67;;;;;;;16.93;100.00;98075.28;5126910;28;20226;-48
2023/04/04 11:56:04;;;;;;;14.07;10.70;;;;;;;16.76;100.00;98067.06;5126639;28;20575;-48
2023/04/04 11:58:48;;;;;;;13.50;11.13;;;;;;;16.65;100.00;98047.78;5127163;28;20681;-50
2023/04/04 12:01:31;;;;;;;13.67;10.03;;;;;;;16.81;100.00;98065.78;5127646;28;20222;-49
2023/04/04 12:04:05;;;;;;;15.80;11.67;;;;;;;16.88;100.00;98069.59;5124411;28;20193;-48
2023/04/04 12:06:34;;;;;;;22.47;12.43;;;;;;;16.72;100.00;98069.09;5124672;28;20243;-48
2023/04/04 12:09:03;;;;;;;13.90;11.67;;;;;;;16.64;100.00;98067.06;5127748;28;20206;-49
2023/04/04 12:11:45;;;;;;;25.17;10.70;;;;;;;16.40;100.00;98073.28;5127620;28;20596;-53
2023/04/04 12:14:41;;;;;;;18.20;11.37;;;;;;;16.09;100.00;98064.28;5127438;28;20761;-52
2023/04/04 12:17:33;;;;;;;12.37;9.97;;;;;;;15.75;100.00;98060.69;5127619;28;20226;-53
2023/04/04 12:20:20;;;;;;;15.40;10.53;;;;;;;15.69;100.00;98066.38;5126360;28;20218;-52
2023/04/04 12:23:25;;;;;;;16.67;10.37;;;;;;;15.40;100.00;98058.81;5127660;27;20214;-49
2023/04/04 12:26:28;;;;;;;;;;;;;;;;;;;;;
2023/04/04 12:29:23;;;;;;;26.80;11.07;;;;;;;15.46;100.00;98058.34;5128417;27;20555;-52
2023/04/04 12:32:13;;;;;;;17.43;11.23;;;;;;;15.38;100.00;98063.31;5130471;27;20696;-53
2023/04/04 12:35:15;;;;;;;23.47;13.17;;;;;;;15.34;100.00;98066.28;5126144;27;20194;-51
2023/04/04 12:38:30;;;;;;;21.60;12.33;;;;;;;15.20;100.00;98060.22;5129739;27;20197;-52
2023/04/04 12:44:17;;;;;;;28.97;15.53;;;;;;;14.80;100.00;98072.63;5120934;27;20214;-51
2023/04/04 12:47:12;;;;;;;21.77;12.30;;;;;;;14.35;100.00;98071.31;5111347;28;20215;-51
2023/04/04 12:53:08;;;;;;;19.27;12.80;;;;;;;13.56;100.00;98066.09;5113327;27;20308;-48
2023/04/04 12:55:39;;;;;;;20.30;12.77;;;;;;;13.19;100.00;98059.78;5132471;27;20248;-52
2023/04/04 12:58:35;;;;;;;22.87;13.70;;;;;;;13.00;100.00;98057.44;5111844;27;20229;-52
2023/04/04 13:04:23;;;;;;;15.73;12.57;;;;;;;12.78;100.00;98093.53;5131588;27;20214;-52
2023/04/04 13:07:06;;;;;;;20.77;13.20;;;;;;;12.72;100.00;98099.97;5112008;28;20198;-52
2023/04/04 13:10:13;;;;;;;16.20;12.77;;;;;;;12.68;100.00;98115.84;5112109;28;20749;-53
2023/04/04 13:13:42;;;;;;;14.10;9.63;;;;;;;12.47;100.00;98122.31;5131078;27;20693;-48
2023/04/04 13:20:04;;;;;;;12.03;7.03;;;;;;;12.16;100.00;98131.91;5110507;28;20202;-51
2023/04/04 13:26:17;;;;;;;6.53;5.80;;;;;;;11.90;100.00;98129.94;5110151;28;20206;-50
2023/04/04 13:29:27;;;;;;;7.70;5.50;;;;;;;11.75;100.00;98141.16;5111829;28;20198;-52
2023/04/04 13:35:27;;;;;;;;;;;;;;;;;;;;;
2023/04/04 13:38:28;;;;;;;5.47;4.97;;;;;;;11.51;100.00;98158.94;5108535;28;20201;-50
2023/04/04 13:41:31;;;;;;;7.33;5.43;;;;;;;11.42;100.00;98162.84;5111347;28;20693;-49
2023/04/04 13:47:41;;;;;;;11.10;5.10;;;;;;;11.38;100.00;98176.09;5123085;27;20202;-52
2023/04/04 13:50:43;;;;;;;5.50;4.80;;;;;;;11.34;100.00;98183.22;5129914;27;20728;-49
2023/04/04 13:53:51;;;;;;;6.30;5.30;;;;;;;11.36;100.00;98181.38;5131988;27;20197;-48
2023/04/04 13:59:55;;;;;;;6.43;5.10;;;;;;;11.13;100.00;98163.56;5129351;27;20652;-52
2023/04/04 14:02:50;;;;;;;4.43;4.03;;;;;;;11.22;100.00;98176.06;5130788;27;20190;-48
2023/04/04 14:05:27;;;;;;;5.50;5.00;;;;;;;11.28;100.00;98167.97;5128021;27;20197;-53
2023/04/04 14:08:32;;;;;;;4.37;3.97;;;;;;;11.25;100.00;98170.72;5110874;28;20631;-48
2023/04/04 14:17:43;;;;;;;4.30;3.87;;;;;;;11.16;100.00;98163.41;5109508;28;20226;-48
2023/04/04 14:24:04;;;;;;;;;;;;;;;;;;;;;
2023/04/04 14:27:05;;;;;;;3.47;3.23;;;;;;;11.10;100.00;98163.72;5110631;28;20806;-52
2023/04/04 14:30:06;;;;;;;3.83;2.93;;;;;;;11.12;100.00;98162.72;5110556;28;20194;-52
2023/04/04 14:33:11;;;;;;;3.40;3.10;;;;;;;11.05;100.00;98165.75;5120583;27;20704;-52
2023/04/04 14:36:00;;;;;;;3.97;3.43;;;;;;;11.00;100.00;98173.75;5110370;28;20241;-52
2023/04/04 14:38:39;;;;;;;4.60;3.37;;;;;;;10.93;100.00;98169.81;5110436;28;20198;-52
2023/04/04 14:47:40;;;;;;;4.20;3.80;;;;;;;11.02;100.00;98202.25;5125948;27;20198;-48
2023/04/04 14:53:30;;;;;;;14.80;7.50;;;;;;;10.94;100.00;98217.38;5129736;27;20205;-48
2023/04/04 14:56:14;;;;;;;6.70;5.00;;;;;;;10.94;100.00;98230.34;5109860;28;20577;-51
2023/04/04 14:58:53;;;;;;;11.33;6.20;;;;;;;10.90;100.00;98235.69;5107801;28;20514;-52
2023/04/04 15:01:33;;;;;;;10.90;6.67;;;;;;;10.84;100.00;98220.41;5106854;28;20210;-51
2023/04/04 15:04:14;;;;;;;19.57;8.13;;;;;;;11.00;100.00;98243.84;5108330;28;20221;-49
2023/04/04 15:06:46;;;;;;;10.77;4.93;;;;;;;11.00;100.00;98249.03;5118841;27;20247;-51
2023/04/04 15:09:20;;;;;;;7.90;4.37;;;;;;;10.98;100.00;98242.25;5127454;27;20194;-53
2023/04/04 15:12:02;;;;;;;5.20;4.17;;;;;;;10.96;100.00;98259.66;5126718;27;20217;-48
2023/04/04 15:14:46;;;;;;;51.40;16.87;;;;;;;10.96;100.00;98259.66;5115089;27;20216;-48
2023/04/04 15:17:22;;;;;;;12.07;6.47;;;;;;;10.88;100.00;98247.91;5128748;27;20308;-51
2023/04/04 15:23:30;;;;;;;31.67;12.70;;;;;;;10.89;100.00;98265.16;5128249;28;20624;-52
2023/04/04 15:26:17;;;;;;;7.43;5.77;;;;;;;10.80;100.00;98268.22;5128112;28;20201;-51
2023/04/04 15:28:46;;;;;;;13.83;7.77;;;;;;;10.80;100.00;98272.56;5129392;28;20201;-52
2023/04/04 15:31:35;;;;;;;46.23;22.30;;;;;;;10.84;100.00;98282.69;5129807;28;20788;-53
2023/04/04 15:34:24;;;;;;;24.87;12.83;;;;;;;10.89;100.00;98282.50;5128644;28;20222;-53
2023/04/04 15:37:03;;;;;;;16.57;10.10;;;;;;;10.85;100.00;98305.16;5128789;28;20288;-52
2023/04/04 15:39:52;;;;;;;18.03;11.23;;;;;;;10.95;100.00;98299.53;5128931;28;20209;-51
2023/04/04 15:42:28;;;;;;;5.30;4.80;;;;;;;10.97;100.00;98302.88;5129257;28;20609;-51
2023/04/04 15:45:03;;;;;;;7.97;4.77;;;;;;;10.94;100.00;98303.03;5128392;28;20193;-52
2023/04/04 15:47:49;;;;;;;3.60;3.33;;;;;;;10.90;100.00;98305.78;5129165;28;20289;-48
2023/04/04 15:50:45;;;;;;;15.80;11.53;;;;;;;10.79;100.00;98302.88;5127910;28;20201;-52
2023/04/04 15:53:35;;;;;;;6.70;6.10;;;;;;;10.67;100.00;98316.44;5115417;28;20686;-52
2023/04/04 15:56:16;;;;;;;4.30;4.00;;;;;;;10.65;100.00;98312.22;5109724;28;20199;-53
2023/04/04 15:58:51;;;;;;;13.60;8.60;;;;;;;10.58;100.00;98322.06;5109923;28;20682;-53
2023/04/04 16:01:22;;;;;;;25.20;9.27;;;;;;;10.54;100.00;98331.75;5113293;27;20686;-52
2023/04/04 16:04:04;;;;;;;4.27;3.87;;;;;;;10.52;100.00;98333.56;5112662;28;20729;-52
2023/04/04 16:06:39;;;;;;;4.13;3.83;;;;;;;10.46;100.00;98338.22;5112962;28;20262;-48
2023/04/04 16:09:16;;;;;;;4.40;4.00;;;;;;;10.41;100.00;98351.38;5112132;28;20245;-50
2023/04/04 16:11:47;;;;;;;5.43;4.07;;;;;;;10.31;100.00;98363.09;5111943;28;20295;-49
2023/04/04 16:14:24;;;;;;;4.63;3.77;;;;;;;10.27;100.00;98365.94;5131353;27;20225;-49
2023/04/04 16:17:03;;;;;;;6.13;5.17;;;;;;;10.19;100.00;98358.47;5131422;27;20222;-47
2023/04/04 16:19:50;;;;;;;9.67;6.27;;;;;;;10.12;100.00;98363.09;5132495;27;20221;-48
2023/04/04 16:22:21;;;;;;;9.97;5.87;;;;;;;10.10;100.00;98367.50;5132516;27;20216;-48